This is the latest recevied weather packets stored in our database for station/object KC2G. If no packets are shown the sender has not sent any weather packets the latest 10 day(s).
| Time | Temp. | Humidity | Pressure | Rain* | Wind** | Luminosity | Snow |
|---|---|---|---|---|---|---|---|
| 1777839401 | 14.44° C | 30% | 1009 hPa | 0 mm | 0.89 m/s, 305° | - | - |
| 1777839355 | 14.44° C | 30% | 1009 hPa | 0 mm | 0.89 m/s, 305° | - | - |
| 1777838463 | 14.44° C | 31% | 1009.2 hPa | 0 mm | 1.34 m/s, 267° | - | - |
| 1777838454 | 13.89° C | 30% | 1009.2 hPa | 0 mm | 0.89 m/s, 255° | - | - |
| 1777837555 | 14.44° C | 31% | 1009.2 hPa | 0 mm | 1.34 m/s, 267° | - | - |
| 1777836721 | 14.44° C | 32% | 1009.4 hPa | 0 mm | 0.45 m/s, 339° | - | - |
| 1777836656 | 14.44° C | 32% | 1009.4 hPa | 0 mm | 0.45 m/s, 339° | - | - |
| 1777836526 | 13.89° C | 34% | 1009.7 hPa | 0 mm | 0.89 m/s, 318° | - | - |
| 1777835754 | 13.89° C | 33% | 1009.6 hPa | 0 mm | 0.89 m/s, 306° | - | - |
| 1777834855 | 13.89° C | 34% | 1009.7 hPa | 0 mm | 0.89 m/s, 318° | - | - |
| 1777833955 | 12.78° C | 36% | 1009.9 hPa | 0 mm | 1.34 m/s, 319° | - | - |
| 1777833055 | 12.78° C | 35% | 1009.9 hPa | 0 mm | 0.89 m/s, 280° | - | - |
| 1777832447 | 12.78° C | 36% | 1010 hPa | 0 mm | 0.89 m/s, 271° | - | - |
| 1777832155 | 12.78° C | 36% | 1010 hPa | 0 mm | 0.89 m/s, 271° | - | - |
| 1777831254 | 12.22° C | 37% | 1010.1 hPa | 0 mm | 1.34 m/s, 255° | - | - |
| 1777830354 | 12.22° C | 38% | 1010.5 hPa | 0 mm | 1.34 m/s, 301° | - | - |
| 1777829455 | 12.22° C | 38% | 1010.4 hPa | 0 mm | 1.34 m/s, 288° | - | - |
| 1777828554 | 12.22° C | 40% | 1010.7 hPa | 0 mm | 1.34 m/s, 292° | - | - |
| 1777827655 | 11.67° C | 39% | 1010.7 hPa | 0 mm | 0.89 m/s, 298° | - | - |
| 1777826754 | 10.56° C | 44% | 1011.1 hPa | 0 mm | 0.89 m/s, 261° | - | - |
| 1777825855 | 11.11° C | 43% | 1011 hPa | 0 mm | 0.89 m/s, 229° | - | - |
| 1777824955 | 11.11° C | 40% | 1011 hPa | 0 mm | 1.34 m/s, 310° | - | - |
| 1777824055 | 10° C | 42% | 1011.2 hPa | 0 mm | 0.89 m/s, 283° | - | - |
| 1777823155 | 10.56° C | 41% | 1011.2 hPa | 0 mm | 0.45 m/s, 292° | - | - |
| 1777822255 | 10.56° C | 37% | 1011.1 hPa | 0 mm | 0.89 m/s, 277° | - | - |
* Rain latest hour (hover to see other rain measurements)
** Current wind speed in m/s (hover to see current wind gust speed)